Terminal Aerodrome Forecast
Issued by NWS

Home | Current Version | Previous Version | Text Only | Print | Product List | Glossary On
Versions: 1 2 3 4 5 6 7 8 9 10 11 12 13 14 15 16 17 18 19 20 21
889
FTUS43 KGRB 250739 AAA
TAFAUW
TAF AMD
KAUW 250739Z 2508/2606 29009G16KT P6SM SCT030 SCT150
     FM251400 30012G20KT P6SM BKN027
     FM251900 30009G15KT P6SM SCT030
     FM252300 31006KT P6SM SKC=

USA.gov is the U.S. government's official web portal to all federal, state and local government web resources and services.